createdAt,value
2023-01-13T00:00:33.100Z,2.05
2023-01-13T00:02:59.689Z,2.22
2023-01-13T00:05:26.774Z,2.08
2023-01-13T00:07:53.266Z,1.95
2023-01-13T00:10:19.857Z,1.89
2023-01-13T00:12:46.333Z,1.90
2023-01-13T00:15:15.787Z,2.08
2023-01-13T00:17:44.161Z,2.19
2023-01-13T00:20:11.347Z,2.02
2023-01-13T00:22:38.055Z,1.90
2023-01-13T00:25:04.779Z,1.86
2023-01-13T00:27:31.651Z,1.88
2023-01-13T00:29:58.422Z,2.07
2023-01-13T00:32:24.982Z,2.15
2023-01-13T00:34:51.578Z,1.97
2023-01-13T00:37:18.040Z,1.94
2023-01-13T00:39:44.522Z,1.93
2023-01-13T00:42:29.371Z,1.99
2023-01-13T00:44:58.103Z,2.18
2023-01-13T00:47:24.654Z,2.13
2023-01-13T00:49:54.477Z,2.02
2023-01-13T00:52:22.927Z,1.97
2023-01-13T00:54:49.606Z,1.98
2023-01-13T00:57:16.064Z,2.16
2023-01-13T00:59:42.549Z,2.30
2023-01-13T01:02:09.193Z,2.16
2023-01-13T01:04:35.863Z,2.07
2023-01-13T01:07:02.366Z,2.03
2023-01-13T01:09:32.869Z,2.12
2023-01-13T01:11:59.995Z,2.29
2023-01-13T01:14:27.256Z,2.25
2023-01-13T01:16:54.307Z,2.17
2023-01-13T01:19:20.822Z,2.11
2023-01-13T01:21:47.320Z,2.10
2023-01-13T01:24:13.923Z,2.28
2023-01-13T01:26:42.759Z,2.39
2023-01-13T01:29:12.063Z,2.24
2023-01-13T01:31:38.564Z,2.17
2023-01-13T01:34:05.279Z,2.15
2023-01-13T01:36:31.810Z,2.23
2023-01-13T01:38:59.109Z,2.37
2023-01-13T01:41:27.140Z,2.36
2023-01-13T01:44:02.423Z,2.19
2023-01-13T01:46:32.105Z,2.11
2023-01-13T01:49:10.922Z,2.06
2023-01-13T01:51:53.763Z,2.18
2023-01-13T01:54:23.488Z,2.33
2023-01-13T01:56:50.670Z,2.10
2023-01-13T01:59:17.961Z,1.96
2023-01-13T02:01:44.950Z,1.86
2023-01-13T02:04:14.341Z,1.92
2023-01-13T02:06:41.487Z,2.12
2023-01-13T02:09:08.673Z,2.14
2023-01-13T02:11:54.314Z,1.96
2023-01-13T02:14:24.748Z,1.97
2023-01-13T02:17:08.236Z,1.96
2023-01-13T02:19:55.525Z,2.14
2023-01-13T02:22:40.872Z,2.21
2023-01-13T02:25:26.170Z,2.15
2023-01-13T02:28:20.988Z,2.11
2023-01-13T02:31:05.933Z,2.08
2023-01-13T02:33:38.267Z,2.25
2023-01-13T02:36:12.435Z,2.38
2023-01-13T02:38:59.171Z,2.23
2023-01-13T02:41:52.980Z,2.11
2023-01-13T02:44:22.342Z,2.02
2023-01-13T02:46:51.807Z,2.15
2023-01-13T02:49:27.030Z,2.29
2023-01-13T02:51:59.892Z,2.20
2023-01-13T02:54:28.483Z,2.15
2023-01-13T02:56:55.657Z,2.16
2023-01-13T02:59:22.312Z,2.18
2023-01-13T03:01:50.196Z,2.35
2023-01-13T03:04:46.161Z,2.44
2023-01-13T03:07:14.609Z,2.29
2023-01-13T03:09:44.828Z,2.26
2023-01-13T03:12:51.962Z,2.25
2023-01-13T03:15:24.260Z,2.40
2023-01-13T03:17:50.841Z,2.47
2023-01-13T03:20:21.945Z,2.35
2023-01-13T03:23:08.730Z,2.30
2023-01-13T03:25:38.550Z,2.29
2023-01-13T03:28:18.439Z,2.37
2023-01-13T03:30:49.499Z,2.54
2023-01-13T03:33:18.277Z,2.47
2023-01-13T03:35:45.955Z,2.34
2023-01-13T03:38:15.817Z,2.27
2023-01-13T03:40:45.653Z,2.23
2023-01-13T03:43:41.220Z,2.34
2023-01-13T03:46:11.683Z,2.42
2023-01-13T03:48:41.462Z,2.29
2023-01-13T03:51:15.049Z,2.22
2023-01-13T03:53:51.211Z,2.18
2023-01-13T03:56:21.718Z,2.27
2023-01-13T03:58:52.666Z,2.40
2023-01-13T04:01:21.882Z,2.36
2023-01-13T04:04:01.474Z,2.25
2023-01-13T04:06:33.958Z,2.18
2023-01-13T04:09:16.420Z,2.17
2023-01-13T04:11:44.939Z,2.27
2023-01-13T04:14:12.777Z,2.37
2023-01-13T04:16:39.371Z,2.32
2023-01-13T04:19:06.615Z,2.24
2023-01-13T04:21:36.134Z,2.19
2023-01-13T04:24:02.613Z,2.18
2023-01-13T04:26:31.261Z,2.26
2023-01-13T04:28:57.782Z,2.39
2023-01-13T04:31:24.410Z,2.38
2023-01-13T04:33:50.926Z,2.28
2023-01-13T04:36:17.414Z,2.21
2023-01-13T04:38:43.877Z,2.18
2023-01-13T04:41:10.356Z,2.24
2023-01-13T04:43:36.809Z,2.39
2023-01-13T04:46:03.401Z,2.33
2023-01-13T04:48:29.940Z,2.24
2023-01-13T04:50:58.927Z,2.18
2023-01-13T04:53:25.449Z,2.15
2023-01-13T04:55:54.332Z,2.23
2023-01-13T04:58:21.252Z,2.38
2023-01-13T05:00:47.715Z,2.35
2023-01-13T05:03:14.286Z,2.24
2023-01-13T05:05:40.762Z,2.14
2023-01-13T05:08:07.275Z,2.10
2023-01-13T05:10:33.815Z,2.14
2023-01-13T05:13:18.609Z,2.31
2023-01-13T05:16:05.805Z,2.31
2023-01-13T05:18:33.209Z,2.20
2023-01-13T05:20:59.710Z,2.17
2023-01-13T05:23:44.704Z,2.12
2023-01-13T05:26:11.271Z,2.27
2023-01-13T05:28:37.841Z,2.36
2023-01-13T05:31:04.345Z,2.24
2023-01-13T05:33:35.742Z,2.12
2023-01-13T05:36:05.141Z,2.00
2023-01-13T05:38:33.468Z,1.95
2023-01-13T05:41:29.696Z,2.12
2023-01-13T05:43:56.270Z,2.27
2023-01-13T05:46:22.860Z,2.15
2023-01-13T05:48:49.770Z,2.09
2023-01-13T05:51:17.124Z,2.05
2023-01-13T05:53:43.745Z,2.06
2023-01-13T05:56:10.889Z,2.26
2023-01-13T05:58:37.850Z,2.31
2023-01-13T06:01:05.945Z,2.10
2023-01-13T06:03:32.955Z,1.98
2023-01-13T06:06:01.839Z,1.97
2023-01-13T06:08:28.930Z,1.99
2023-01-13T06:10:55.534Z,2.19
2023-01-13T06:13:22.208Z,2.23
2023-01-13T06:15:48.793Z,2.07
2023-01-13T06:18:15.233Z,2.03
2023-01-13T06:20:41.805Z,1.99
2023-01-13T06:23:14.685Z,2.01
2023-01-13T06:25:52.641Z,2.19
2023-01-13T06:28:20.916Z,2.17
2023-01-13T06:30:55.434Z,2.03
2023-01-13T06:33:24.937Z,2.01
2023-01-13T06:35:55.605Z,1.98
2023-01-13T06:38:23.026Z,2.14
2023-01-13T06:40:49.752Z,2.23
2023-01-13T06:43:17.213Z,2.06
2023-01-13T06:45:51.284Z,1.99
2023-01-13T06:48:18.952Z,1.96
2023-01-13T06:50:47.618Z,2.06
2023-01-13T06:53:14.864Z,2.19
2023-01-13T06:55:41.461Z,2.09
2023-01-13T06:58:07.954Z,1.98
2023-01-13T07:00:37.477Z,1.92
2023-01-13T07:03:09.927Z,1.97
2023-01-13T07:05:36.518Z,2.13
2023-01-13T07:08:03.086Z,2.14
2023-01-13T07:10:30.288Z,1.99
2023-01-13T07:13:15.440Z,1.94
2023-01-13T07:15:42.013Z,1.90
2023-01-13T07:18:08.605Z,1.94
2023-01-13T07:20:35.149Z,2.06
2023-01-13T07:23:01.677Z,2.02
2023-01-13T07:25:28.281Z,1.93
2023-01-13T07:27:57.272Z,1.89
2023-01-13T07:30:23.756Z,1.90
2023-01-13T07:32:50.499Z,2.01
2023-01-13T07:35:21.895Z,2.11
2023-01-13T07:37:48.759Z,1.94
2023-01-13T07:40:15.546Z,1.90
2023-01-13T07:43:00.828Z,1.84
2023-01-13T07:45:27.379Z,1.99
2023-01-13T07:47:53.989Z,2.06
2023-01-13T07:50:21.720Z,1.92
2023-01-13T07:52:48.897Z,1.85
2023-01-13T07:55:15.445Z,1.80
2023-01-13T07:57:42.063Z,1.89
2023-01-13T08:00:10.492Z,2.00
2023-01-13T08:02:38.576Z,1.93
2023-01-13T08:05:05.348Z,1.83
2023-01-13T08:07:31.958Z,1.79
2023-01-13T08:09:58.430Z,1.80
2023-01-13T08:12:51.972Z,1.98
2023-01-13T08:15:20.714Z,1.96
2023-01-13T08:17:47.205Z,1.85
2023-01-13T08:20:13.658Z,1.81
2023-01-13T08:22:40.170Z,1.77
2023-01-13T08:25:06.898Z,1.75
2023-01-13T08:27:34.010Z,1.83
2023-01-13T08:30:00.723Z,1.84
2023-01-13T08:32:27.200Z,1.73
2023-01-13T08:34:53.706Z,1.69
2023-01-13T08:37:20.177Z,1.65
2023-01-13T08:39:46.791Z,1.64
2023-01-13T08:42:13.250Z,1.60
2023-01-13T08:44:39.689Z,1.70
2023-01-13T08:47:06.527Z,1.79
2023-01-13T08:49:33.068Z,1.64
2023-01-13T08:52:01.177Z,1.52
2023-01-13T08:54:27.610Z,1.46
2023-01-13T08:56:54.126Z,1.41
2023-01-13T08:59:20.747Z,1.37
2023-01-13T09:01:47.390Z,1.36
2023-01-13T09:04:18.705Z,1.51
2023-01-13T09:06:45.715Z,1.57
2023-01-13T09:09:12.341Z,1.38
2023-01-13T09:11:58.992Z,1.28
2023-01-13T09:14:26.529Z,1.21
2023-01-13T09:16:53.030Z,1.17
2023-01-13T09:19:19.592Z,1.16
2023-01-13T09:21:46.041Z,1.28
2023-01-13T09:24:12.568Z,1.41
2023-01-13T09:26:40.953Z,1.32
2023-01-13T09:29:07.421Z,1.22
2023-01-13T09:31:34.523Z,1.17
2023-01-13T09:34:20.101Z,1.13
2023-01-13T09:36:46.651Z,1.10
2023-01-13T09:39:13.389Z,1.07
2023-01-13T09:42:06.185Z,1.19
2023-01-13T09:44:51.393Z,1.36
2023-01-13T09:47:17.845Z,1.17
2023-01-13T09:49:44.466Z,1.11
2023-01-13T09:52:21.373Z,1.09
2023-01-13T09:54:50.873Z,1.13
2023-01-13T09:57:18.890Z,1.10
2023-01-13T09:59:47.370Z,1.09
2023-01-13T10:02:13.830Z,1.23
2023-01-13T10:04:40.416Z,1.43
2023-01-13T10:07:13.054Z,1.33
2023-01-13T10:09:51.395Z,1.21
2023-01-13T10:12:40.837Z,1.20
2023-01-13T10:15:13.492Z,1.15
2023-01-13T10:18:00.301Z,1.14
2023-01-13T10:20:31.369Z,1.14
2023-01-13T10:23:12.942Z,1.29
2023-01-13T10:25:39.362Z,1.44
2023-01-13T10:28:11.240Z,1.31
2023-01-13T10:30:40.316Z,1.24
2023-01-13T10:33:06.858Z,1.21
2023-01-13T10:35:54.105Z,1.20
2023-01-13T10:38:25.120Z,1.20
2023-01-13T10:40:59.066Z,1.19
2023-01-13T10:43:26.413Z,1.25
2023-01-13T10:45:58.315Z,1.38
2023-01-13T10:48:32.907Z,1.46
2023-01-13T10:51:09.946Z,1.29
2023-01-13T10:53:44.505Z,1.26
2023-01-13T10:56:15.831Z,1.20
2023-01-13T10:58:42.276Z,1.18
2023-01-13T11:01:17.031Z,1.33
2023-01-13T11:03:47.059Z,1.32
2023-01-13T11:06:25.033Z,1.25
2023-01-13T11:08:55.325Z,1.19
2023-01-13T11:11:26.867Z,1.15
2023-01-13T11:14:13.767Z,1.15
2023-01-13T11:16:52.794Z,1.16
2023-01-13T11:19:22.841Z,1.25
2023-01-13T11:21:49.731Z,1.41
2023-01-13T11:24:23.488Z,1.40
2023-01-13T11:26:56.741Z,1.31
2023-01-13T11:29:38.451Z,1.28
2023-01-13T11:32:12.822Z,1.24
2023-01-13T11:34:40.369Z,1.30
2023-01-13T11:37:14.863Z,1.45
2023-01-13T11:39:59.831Z,1.44
2023-01-13T11:42:38.401Z,1.35
2023-01-13T11:45:04.833Z,1.30
2023-01-13T11:47:34.561Z,1.27
2023-01-13T11:50:01.521Z,1.26
2023-01-13T11:52:28.725Z,1.26
2023-01-13T11:55:21.744Z,1.38
2023-01-13T11:58:07.056Z,1.37
2023-01-13T12:00:36.506Z,1.29
2023-01-13T12:03:08.923Z,1.26
2023-01-13T12:05:40.437Z,1.28
2023-01-13T12:08:18.196Z,1.22
2023-01-13T12:10:44.742Z,1.28
2023-01-13T12:13:14.060Z,1.37
2023-01-13T12:15:55.746Z,1.34
2023-01-13T12:18:22.404Z,1.28
2023-01-13T12:21:00.042Z,1.23
2023-01-13T12:23:26.522Z,1.23
2023-01-13T12:25:55.864Z,1.23
2023-01-13T12:28:45.739Z,1.32
2023-01-13T12:31:13.054Z,1.36
2023-01-13T12:33:47.728Z,1.33
2023-01-13T12:36:26.221Z,1.31
2023-01-13T12:38:59.376Z,1.27
2023-01-13T12:41:38.828Z,1.27
2023-01-13T12:44:17.523Z,1.35
2023-01-13T12:46:58.773Z,1.45
2023-01-13T12:49:26.765Z,1.39
2023-01-13T12:51:55.292Z,1.34
2023-01-13T12:54:30.632Z,1.32
2023-01-13T12:56:58.064Z,1.29
2023-01-13T12:59:24.484Z,1.26
2023-01-13T13:01:52.076Z,1.26
2023-01-13T13:04:19.985Z,1.35
2023-01-13T13:06:59.596Z,1.42
2023-01-13T13:09:30.097Z,1.36
2023-01-13T13:11:59.454Z,1.33
2023-01-13T13:14:38.253Z,1.33
2023-01-13T13:17:19.750Z,1.29
2023-01-13T13:19:47.796Z,1.29
2023-01-13T13:22:14.512Z,1.33
2023-01-13T13:24:42.046Z,1.43
2023-01-13T13:27:27.406Z,1.46
2023-01-13T13:30:02.134Z,1.39
2023-01-13T13:32:36.229Z,1.32
2023-01-13T13:35:11.692Z,1.31
2023-01-13T13:38:32.214Z,1.29
2023-01-13T13:41:17.567Z,1.31
2023-01-13T13:44:03.469Z,1.41
2023-01-13T13:46:49.095Z,1.47
2023-01-13T13:49:17.123Z,1.42
2023-01-13T13:51:50.822Z,1.41
2023-01-13T13:54:19.467Z,1.41
2023-01-13T13:56:47.142Z,1.51
2023-01-13T13:59:18.716Z,1.58
2023-01-13T14:01:46.063Z,1.54
2023-01-13T14:04:12.556Z,1.47
2023-01-13T14:06:48.762Z,1.43
2023-01-13T14:09:19.247Z,1.42
2023-01-13T14:11:54.308Z,1.42
2023-01-13T14:14:21.196Z,1.50
2023-01-13T14:16:47.805Z,1.51
2023-01-13T14:19:45.626Z,1.46
2023-01-13T14:22:16.327Z,1.42
2023-01-13T14:24:47.559Z,1.37
2023-01-13T14:27:15.797Z,1.33
2023-01-13T14:29:42.412Z,1.36
2023-01-13T14:32:09.362Z,1.37
2023-01-13T14:34:36.285Z,1.40
2023-01-13T14:37:03.120Z,1.41
2023-01-13T14:39:40.741Z,1.44
2023-01-13T14:42:14.049Z,1.45
2023-01-13T14:44:44.117Z,1.48
2023-01-13T14:47:28.047Z,1.54
2023-01-13T14:50:02.546Z,1.54
2023-01-13T14:52:31.980Z,1.54
2023-01-13T14:54:59.068Z,1.57
2023-01-13T14:57:28.609Z,1.60
2023-01-13T14:59:56.223Z,1.62
2023-01-13T15:02:25.559Z,1.65
2023-01-13T15:04:57.832Z,1.61
2023-01-13T15:07:25.916Z,1.21
2023-01-13T15:09:56.643Z,1.09
2023-01-13T15:12:28.209Z,1.14
2023-01-13T15:14:54.916Z,1.30
2023-01-13T15:17:21.397Z,1.40
2023-01-13T15:19:47.888Z,1.23
2023-01-13T15:22:14.375Z,1.11
2023-01-13T15:24:41.394Z,1.03
2023-01-13T15:27:15.364Z,0.99
2023-01-13T15:29:41.851Z,1.08
2023-01-13T15:32:15.945Z,1.23
2023-01-13T15:34:42.487Z,1.12
2023-01-13T15:37:09.272Z,1.02
2023-01-13T15:39:35.801Z,0.98
2023-01-13T15:42:20.672Z,0.94
2023-01-13T15:45:05.684Z,1.01
2023-01-13T15:47:32.276Z,1.17
2023-01-13T15:49:58.904Z,1.10
2023-01-13T15:52:27.428Z,1.00
2023-01-13T15:54:54.370Z,0.97
2023-01-13T15:57:21.254Z,0.94
2023-01-13T15:59:47.939Z,1.08
2023-01-13T16:02:18.524Z,1.22
2023-01-13T16:04:45.481Z,1.08
2023-01-13T16:07:15.813Z,1.00
2023-01-13T16:09:42.339Z,0.94
2023-01-13T16:12:08.974Z,0.90
2023-01-13T16:14:35.460Z,0.88
2023-01-13T16:17:02.749Z,0.93
2023-01-13T16:19:29.200Z,1.13
2023-01-13T16:21:58.040Z,1.06
2023-01-13T16:24:24.496Z,0.97
2023-01-13T16:26:53.075Z,0.93
2023-01-13T16:29:19.593Z,0.91
2023-01-13T16:31:46.156Z,0.90
2023-01-13T16:34:12.870Z,1.02
2023-01-13T16:36:39.665Z,1.16
2023-01-13T16:39:20.119Z,1.04
2023-01-13T16:41:46.865Z,1.00
2023-01-13T16:44:13.516Z,0.97
2023-01-13T16:46:40.134Z,0.97
2023-01-13T16:49:06.773Z,1.07
2023-01-13T16:51:37.238Z,1.22
2023-01-13T16:54:03.904Z,1.15
2023-01-13T16:56:31.734Z,1.01
2023-01-13T16:58:59.571Z,0.97
2023-01-13T17:01:27.610Z,0.95
2023-01-13T17:03:56.449Z,1.11
2023-01-13T17:06:24.859Z,1.28
2023-01-13T17:08:55.136Z,1.10
2023-01-13T17:11:22.211Z,1.04
2023-01-13T17:13:48.671Z,1.01
2023-01-13T17:16:17.086Z,1.03
2023-01-13T17:18:43.552Z,1.19
2023-01-13T17:21:12.417Z,1.24
2023-01-13T17:23:40.854Z,1.11
2023-01-13T17:26:09.609Z,1.07
2023-01-13T17:28:38.143Z,1.06
2023-01-13T17:31:04.717Z,1.10
2023-01-13T17:33:37.147Z,1.23
2023-01-13T17:36:04.145Z,1.22
2023-01-13T17:38:30.589Z,1.14
2023-01-13T17:41:01.333Z,1.09
2023-01-13T17:43:27.914Z,1.06
2023-01-13T17:45:54.645Z,1.21
2023-01-13T17:48:21.115Z,1.32
2023-01-13T17:50:48.652Z,1.19
2023-01-13T17:53:16.817Z,1.12
2023-01-13T17:55:49.391Z,1.08
2023-01-13T17:58:15.983Z,1.08
2023-01-13T18:00:42.536Z,1.22
2023-01-13T18:03:10.698Z,1.35
2023-01-13T18:05:37.516Z,1.19
2023-01-13T18:08:04.046Z,1.12
2023-01-13T18:10:30.876Z,1.13
2023-01-13T18:12:57.519Z,1.20
2023-01-13T18:15:24.047Z,1.37
2023-01-13T18:17:50.855Z,1.26
2023-01-13T18:20:36.931Z,1.14
2023-01-13T18:23:22.172Z,1.12
2023-01-13T18:26:07.469Z,1.13
2023-01-13T18:28:34.096Z,1.32
2023-01-13T18:31:00.569Z,1.30
2023-01-13T18:33:27.288Z,1.18
2023-01-13T18:35:53.973Z,1.12
2023-01-13T18:38:26.824Z,1.17
2023-01-13T18:40:53.415Z,1.21
2023-01-13T18:43:20.052Z,1.36
2023-01-13T18:45:49.812Z,1.30
2023-01-13T18:48:16.431Z,1.22
2023-01-13T18:50:42.950Z,1.20
2023-01-13T18:53:12.005Z,1.19
2023-01-13T18:55:38.496Z,1.19
2023-01-13T18:58:05.270Z,1.18
2023-01-13T19:00:36.747Z,1.18
2023-01-13T19:05:34.724Z,1.22
2023-01-13T19:08:01.281Z,1.25
2023-01-13T19:10:31.888Z,1.24
2023-01-13T19:12:58.432Z,1.27
2023-01-13T19:15:24.871Z,1.37
2023-01-13T19:17:51.492Z,1.43
2023-01-13T19:20:18.152Z,1.34
2023-01-13T19:22:46.293Z,1.29
2023-01-13T19:25:12.849Z,1.29
2023-01-13T19:27:39.897Z,1.32
2023-01-13T19:30:06.694Z,1.34
2023-01-13T19:32:33.326Z,1.41
2023-01-13T19:34:59.958Z,1.50
2023-01-13T19:37:31.488Z,1.46
2023-01-13T19:40:01.504Z,1.35
2023-01-13T19:42:48.577Z,1.34
2023-01-13T19:45:27.843Z,1.39
2023-01-13T19:47:54.820Z,1.44
2023-01-13T19:50:21.491Z,1.46
2023-01-13T19:52:48.760Z,1.56
2023-01-13T19:55:16.138Z,1.62
2023-01-13T19:57:43.706Z,1.66
2023-01-13T20:00:11.826Z,1.73
2023-01-13T20:02:38.849Z,1.64
2023-01-13T20:05:09.519Z,1.46
2023-01-13T20:07:36.184Z,1.48
2023-01-13T20:10:02.827Z,1.54
2023-01-13T20:12:30.029Z,1.65
2023-01-13T20:14:56.922Z,1.62
2023-01-13T20:17:25.481Z,1.23
2023-01-13T20:19:52.325Z,1.02
2023-01-13T20:22:18.958Z,1.18
2023-01-13T20:24:45.529Z,1.37
2023-01-13T20:27:12.075Z,1.51
2023-01-13T20:29:40.931Z,1.20
2023-01-13T20:32:07.612Z,1.03
2023-01-13T20:34:35.915Z,0.98
2023-01-13T20:37:02.492Z,0.92
2023-01-13T20:39:31.300Z,0.86
2023-01-13T20:42:16.484Z,0.85
2023-01-13T20:44:45.088Z,0.85
2023-01-13T20:47:11.840Z,0.84
2023-01-13T20:49:41.211Z,0.87
2023-01-13T20:52:12.643Z,0.85
2023-01-13T20:54:40.930Z,0.83
2023-01-13T20:57:10.000Z,0.83
2023-01-13T20:59:39.752Z,1.04
2023-01-13T21:02:07.524Z,1.09
2023-01-13T21:04:35.926Z,0.94
2023-01-13T21:07:02.502Z,0.86
2023-01-13T21:09:29.383Z,0.83
2023-01-13T21:12:14.389Z,0.84
2023-01-13T21:14:59.344Z,0.81
2023-01-13T21:17:44.548Z,0.81
2023-01-13T21:20:12.083Z,0.79
2023-01-13T21:22:39.677Z,0.96
2023-01-13T21:25:06.541Z,1.13
2023-01-13T21:27:34.376Z,1.03
2023-01-13T21:30:03.071Z,0.92
2023-01-13T21:32:29.722Z,0.87
2023-01-13T21:34:56.506Z,0.83
2023-01-13T21:37:22.972Z,0.83
2023-01-13T21:39:49.630Z,0.86
2023-01-13T21:42:37.075Z,0.89
2023-01-13T21:45:22.427Z,0.92
2023-01-13T21:47:49.069Z,1.00
2023-01-13T21:50:20.038Z,1.16
2023-01-13T21:52:48.355Z,1.17
2023-01-13T21:55:24.856Z,1.04
2023-01-13T21:57:53.112Z,0.98
2023-01-13T22:00:20.814Z,0.98
2023-01-13T22:02:47.761Z,0.98
2023-01-13T22:05:15.551Z,1.02
2023-01-13T22:07:42.471Z,1.01
2023-01-13T22:10:10.907Z,1.03
2023-01-13T22:12:37.968Z,1.07
2023-01-13T22:15:04.828Z,1.10
2023-01-13T22:17:34.665Z,1.26
2023-01-13T22:20:01.459Z,1.33
2023-01-13T22:22:29.214Z,1.18
2023-01-13T22:24:58.008Z,1.15
2023-01-13T22:27:25.835Z,1.13
2023-01-13T22:29:54.738Z,1.15
2023-01-13T22:32:21.435Z,1.18
2023-01-13T22:34:50.613Z,1.22
2023-01-13T22:37:17.142Z,1.28
2023-01-13T22:39:45.819Z,1.32
2023-01-13T22:44:48.547Z,1.51
2023-01-13T22:47:15.228Z,1.54
2023-01-13T22:49:43.261Z,1.52
2023-01-13T22:52:10.144Z,1.52
2023-01-13T22:54:36.952Z,1.56
2023-01-13T22:57:03.700Z,1.56
2023-01-13T22:59:32.123Z,1.68
2023-01-13T23:01:58.975Z,1.72
2023-01-13T23:04:25.655Z,1.69
2023-01-13T23:06:54.741Z,1.61
2023-01-13T23:09:21.495Z,1.67
2023-01-13T23:11:50.596Z,1.73
2023-01-13T23:14:17.431Z,1.78
2023-01-13T23:16:44.269Z,1.37
2023-01-13T23:19:10.797Z,1.11
2023-01-13T23:21:38.030Z,1.19
2023-01-13T23:24:05.489Z,1.43
2023-01-13T23:26:32.595Z,1.58
2023-01-13T23:29:00.498Z,1.24
2023-01-13T23:31:27.563Z,1.06
2023-01-13T23:33:56.004Z,0.99
2023-01-13T23:36:24.058Z,0.94
2023-01-13T23:38:53.407Z,0.88
2023-01-13T23:41:21.215Z,0.86
2023-01-13T23:43:52.098Z,0.84
2023-01-13T23:46:20.280Z,0.83
2023-01-13T23:48:47.177Z,0.81
2023-01-13T23:51:14.069Z,0.81
2023-01-13T23:53:45.397Z,0.81
2023-01-13T23:56:14.005Z,0.82
2023-01-13T23:58:40.729Z,1.00
